createdAt,value
2023-04-13T00:01:23.137Z,7.50
2023-04-13T00:03:50.696Z,7.60
2023-04-13T00:06:17.684Z,7.50
2023-04-13T00:08:45.047Z,7.60
2023-04-13T00:11:13.584Z,7.60
2023-04-13T00:13:47.267Z,7.60
2023-04-13T00:16:16.241Z,7.60
2023-04-13T00:18:43.079Z,7.60
2023-04-13T00:21:09.913Z,7.50
2023-04-13T00:23:36.851Z,7.50
2023-04-13T00:26:03.921Z,7.50
2023-04-13T00:28:32.022Z,7.40
2023-04-13T00:30:58.836Z,7.40
2023-04-13T00:33:25.943Z,7.40
2023-04-13T00:35:52.749Z,7.30
2023-04-13T00:38:19.450Z,7.30
2023-04-13T00:40:46.288Z,7.30
2023-04-13T00:43:13.061Z,7.30
2023-04-13T00:45:41.393Z,7.30
2023-04-13T00:48:10.487Z,7.20
2023-04-13T00:50:37.900Z,7.20
2023-04-13T00:53:08.150Z,7.10
2023-04-13T00:55:39.509Z,7.10
2023-04-13T00:58:06.569Z,7.10
2023-04-13T01:00:33.410Z,7.00
2023-04-13T01:03:02.343Z,7.00
2023-04-13T01:05:35.280Z,6.90
2023-04-13T01:08:11.490Z,7.00
2023-04-13T01:10:47.405Z,6.90
2023-04-13T01:13:21.140Z,6.90
2023-04-13T01:15:56.315Z,6.90
2023-04-13T01:18:25.761Z,6.90
2023-04-13T01:20:54.722Z,6.90
2023-04-13T01:23:32.445Z,6.90
2023-04-13T01:26:04.006Z,6.80
2023-04-13T01:28:33.535Z,6.80
2023-04-13T01:31:01.890Z,6.70
2023-04-13T01:33:30.608Z,6.80
2023-04-13T01:36:00.571Z,6.80
2023-04-13T01:38:27.386Z,6.80
2023-04-13T01:40:54.261Z,6.80
2023-04-13T01:43:21.551Z,6.80
2023-04-13T01:45:56.865Z,6.80
2023-04-13T01:48:29.474Z,6.80
2023-04-13T01:50:58.227Z,6.80
2023-04-13T01:53:30.287Z,6.80
2023-04-13T01:55:57.998Z,6.90
2023-04-13T01:58:27.832Z,6.90
2023-04-13T02:00:56.012Z,6.90
2023-04-13T02:03:22.991Z,6.90
2023-04-13T02:05:50.436Z,6.90
2023-04-13T02:08:20.629Z,6.90
2023-04-13T02:10:47.559Z,6.90
2023-04-13T02:13:14.613Z,6.90
2023-04-13T02:15:42.063Z,6.90
2023-04-13T02:18:11.617Z,7.00
2023-04-13T02:20:45.811Z,7.00
2023-04-13T02:23:14.936Z,7.00
2023-04-13T02:25:43.915Z,7.00
2023-04-13T02:28:12.134Z,7.00
2023-04-13T02:30:38.816Z,7.00
2023-04-13T02:33:09.399Z,7.00
2023-04-13T02:35:39.095Z,7.10
2023-04-13T02:38:06.703Z,7.10
2023-04-13T02:40:33.563Z,7.10
2023-04-13T02:43:00.427Z,7.10
2023-04-13T02:45:28.571Z,7.10
2023-04-13T02:47:56.752Z,7.20
2023-04-13T02:50:23.617Z,7.20
2023-04-13T02:52:53.572Z,7.30
2023-04-13T02:55:20.845Z,7.30
2023-04-13T02:57:47.756Z,7.40
2023-04-13T03:00:16.029Z,7.50
2023-04-13T03:02:44.636Z,7.50
2023-04-13T03:05:12.362Z,7.60
2023-04-13T03:07:39.272Z,7.60
2023-04-13T03:10:10.981Z,7.60
2023-04-13T03:12:38.627Z,7.70
2023-04-13T03:15:07.646Z,7.70
2023-04-13T03:17:34.465Z,7.70
2023-04-13T03:20:02.080Z,7.80
2023-04-13T03:22:30.539Z,7.80
2023-04-13T03:24:57.550Z,7.80
2023-04-13T03:27:26.206Z,7.80
2023-04-13T03:29:53.064Z,7.90
2023-04-13T03:32:20.008Z,7.90
2023-04-13T03:34:46.874Z,7.90
2023-04-13T03:37:13.821Z,7.90
2023-04-13T03:39:40.809Z,7.90
2023-04-13T03:42:07.738Z,7.90
2023-04-13T03:44:36.020Z,7.90
2023-04-13T03:47:02.977Z,7.90
2023-04-13T03:49:32.799Z,7.90
2023-04-13T03:51:59.614Z,7.90
2023-04-13T03:54:26.456Z,7.90
2023-04-13T03:56:53.726Z,7.90
2023-04-13T03:59:20.653Z,7.90
2023-04-13T04:01:48.893Z,8.00
2023-04-13T04:04:16.047Z,8.00
2023-04-13T04:06:43.042Z,8.00
2023-04-13T04:09:10.214Z,8.00
2023-04-13T04:11:37.014Z,8.10
2023-04-13T04:14:03.847Z,8.10
2023-04-13T04:16:30.681Z,8.10
2023-04-13T04:18:58.914Z,8.20
2023-04-13T04:21:34.301Z,8.20
2023-04-13T04:24:01.352Z,8.20
2023-04-13T04:26:29.841Z,8.20
2023-04-13T04:29:02.430Z,8.20
2023-04-13T04:31:36.760Z,8.20
2023-04-13T04:34:05.478Z,8.20
2023-04-13T04:36:32.341Z,8.20
2023-04-13T04:39:02.269Z,8.20
2023-04-13T04:41:31.163Z,8.20
2023-04-13T04:44:02.874Z,8.20
2023-04-13T04:46:29.902Z,8.20
2023-04-13T04:49:00.712Z,8.20
2023-04-13T04:51:28.989Z,8.20
2023-04-13T04:53:58.692Z,8.20
2023-04-13T04:56:26.032Z,8.20
2023-04-13T04:58:52.873Z,8.20
2023-04-13T05:01:26.301Z,8.20
2023-04-13T05:03:53.317Z,8.20
2023-04-13T05:06:20.148Z,8.20
2023-04-13T05:08:48.356Z,8.20
2023-04-13T05:11:15.280Z,8.30
2023-04-13T05:13:42.113Z,8.30
2023-04-13T05:16:10.651Z,8.30
2023-04-13T05:18:45.038Z,8.30
2023-04-13T05:21:12.759Z,8.40
2023-04-13T05:23:39.796Z,8.40
2023-04-13T05:26:10.104Z,8.40
2023-04-13T05:28:37.015Z,8.40
2023-04-13T05:31:04.786Z,8.40
2023-04-13T05:33:31.584Z,8.50
2023-04-13T05:35:58.395Z,8.50
2023-04-13T05:38:25.293Z,8.50
2023-04-13T05:40:53.559Z,8.60
2023-04-13T05:43:23.612Z,8.60
2023-04-13T05:45:50.895Z,8.60
2023-04-13T05:48:17.827Z,8.60
2023-04-13T05:50:44.689Z,8.60
2023-04-13T05:53:11.593Z,8.70
2023-04-13T05:55:40.216Z,8.70
2023-04-13T05:58:08.745Z,8.70
2023-04-13T06:00:38.567Z,8.70
2023-04-13T06:03:05.549Z,8.70
2023-04-13T06:05:35.336Z,8.70
2023-04-13T06:08:02.318Z,8.80
2023-04-13T06:10:29.288Z,8.70
2023-04-13T06:12:56.222Z,8.70
2023-04-13T06:15:23.240Z,8.80
2023-04-13T06:17:53.217Z,8.70
2023-04-13T06:20:21.080Z,8.70
2023-04-13T06:22:48.052Z,8.80
2023-04-13T06:25:16.430Z,8.80
2023-04-13T06:27:43.996Z,8.80
2023-04-13T06:30:12.133Z,8.80
2023-04-13T06:32:39.194Z,8.80
2023-04-13T06:35:08.798Z,8.80
2023-04-13T06:37:36.247Z,8.70
2023-04-13T06:40:12.677Z,8.70
2023-04-13T06:42:40.244Z,8.70
2023-04-13T06:45:08.200Z,8.70
2023-04-13T06:47:35.751Z,8.70
2023-04-13T06:50:05.147Z,8.80
2023-04-13T06:52:33.421Z,8.80
2023-04-13T06:55:00.391Z,8.80
2023-04-13T06:57:27.310Z,8.90
2023-04-13T06:59:54.315Z,8.90
2023-04-13T07:02:21.426Z,8.90
2023-04-13T07:04:48.612Z,8.90
2023-04-13T07:07:15.630Z,8.90
2023-04-13T07:09:43.801Z,8.90
2023-04-13T07:12:11.170Z,8.90
2023-04-13T07:14:39.906Z,8.90
2023-04-13T07:17:07.100Z,9.00
2023-04-13T07:19:35.680Z,9.10
2023-04-13T07:22:04.242Z,9.00
2023-04-13T07:24:33.874Z,9.00
2023-04-13T07:27:02.719Z,9.00
2023-04-13T07:29:29.593Z,9.00
2023-04-13T07:32:00.690Z,9.00
2023-04-13T07:34:27.842Z,9.00
2023-04-13T07:36:54.843Z,9.00
2023-04-13T07:39:21.839Z,9.00
2023-04-13T07:41:48.736Z,9.00
2023-04-13T07:44:17.558Z,9.00
2023-04-13T07:46:44.575Z,9.00
2023-04-13T07:49:11.514Z,9.00
2023-04-13T07:51:38.323Z,9.00
2023-04-13T07:54:05.347Z,9.00
2023-04-13T07:56:32.411Z,9.00
2023-04-13T07:58:59.398Z,9.00
2023-04-13T08:01:27.772Z,8.90
2023-04-13T08:03:54.749Z,8.90
2023-04-13T08:06:22.181Z,8.90
2023-04-13T08:08:49.355Z,8.90
2023-04-13T08:11:16.648Z,8.90
2023-04-13T08:13:43.695Z,8.90
2023-04-13T08:16:11.243Z,9.00
2023-04-13T08:18:39.556Z,9.00
2023-04-13T08:21:10.993Z,9.00
2023-04-13T08:23:40.798Z,9.00
2023-04-13T08:26:07.781Z,9.00
2023-04-13T08:28:35.331Z,9.00
2023-04-13T08:31:02.809Z,9.00
2023-04-13T08:33:29.754Z,9.00
2023-04-13T08:35:57.910Z,9.00
2023-04-13T08:38:24.694Z,9.00
2023-04-13T08:40:52.106Z,9.00
2023-04-13T08:43:19.779Z,9.00
2023-04-13T08:45:47.898Z,9.00
2023-04-13T08:48:18.533Z,9.10
2023-04-13T08:50:45.985Z,9.10
2023-04-13T08:53:18.444Z,9.20
2023-04-13T08:55:46.155Z,9.20
2023-04-13T08:58:14.685Z,9.20
2023-04-13T09:00:43.340Z,9.20
2023-04-13T09:03:14.691Z,9.20
2023-04-13T09:05:42.377Z,9.20
2023-04-13T09:08:11.336Z,9.20
2023-04-13T09:10:40.706Z,9.30
2023-04-13T09:13:07.644Z,9.40
2023-04-13T09:15:34.515Z,9.40
2023-04-13T09:18:09.258Z,9.50
2023-04-13T09:20:37.700Z,9.50
2023-04-13T09:23:14.457Z,9.60
2023-04-13T09:25:43.993Z,9.60
2023-04-13T09:28:16.980Z,9.60
2023-04-13T09:30:44.029Z,9.70
2023-04-13T09:33:11.637Z,9.70
2023-04-13T09:35:39.081Z,9.70
2023-04-13T09:38:07.315Z,9.80
2023-04-13T09:40:38.151Z,9.80
2023-04-13T09:43:07.965Z,10.00
2023-04-13T09:45:36.360Z,10.50
2023-04-13T09:48:04.014Z,10.90
2023-04-13T09:50:33.731Z,11.10
2023-04-13T09:53:01.717Z,11.30
2023-04-13T09:55:31.623Z,11.30
2023-04-13T09:58:10.914Z,11.30
2023-04-13T10:00:38.859Z,11.20
2023-04-13T10:03:09.706Z,11.10
2023-04-13T10:05:51.016Z,11.00
2023-04-13T10:08:36.829Z,11.00
2023-04-13T10:11:08.142Z,11.20
2023-04-13T10:13:41.575Z,11.50
2023-04-13T10:16:45.195Z,11.80
2023-04-13T10:19:15.258Z,12.10
2023-04-13T10:27:36.539Z,12.20
2023-04-13T10:30:18.086Z,12.40
2023-04-13T10:32:45.164Z,12.60
2023-04-13T10:35:15.083Z,12.90
2023-04-13T10:37:43.906Z,13.00
2023-04-13T10:40:14.245Z,13.00
2023-04-13T10:42:51.912Z,13.00
2023-04-13T10:45:24.000Z,13.00
2023-04-13T10:47:51.450Z,13.20
2023-04-13T10:50:19.988Z,13.30
2023-04-13T10:53:04.156Z,13.40
2023-04-13T10:55:32.220Z,13.70
2023-04-13T10:58:00.392Z,13.80
2023-04-13T11:00:44.637Z,13.90
2023-04-13T11:03:15.282Z,14.00
2023-04-13T11:05:43.328Z,14.20
2023-04-13T11:08:16.217Z,14.50
2023-04-13T11:10:43.076Z,14.80
2023-04-13T11:13:09.872Z,15.20
2023-04-13T11:15:38.009Z,15.30
2023-04-13T11:18:05.188Z,15.30
2023-04-13T11:20:33.201Z,15.30
2023-04-13T11:23:02.377Z,15.30
2023-04-13T11:25:29.468Z,15.40
2023-04-13T11:27:57.668Z,15.50
2023-04-13T11:30:25.660Z,15.40
2023-04-13T11:32:54.763Z,15.40
2023-04-13T11:35:23.352Z,15.20
2023-04-13T11:37:52.915Z,14.80
2023-04-13T11:40:23.088Z,14.40
2023-04-13T11:42:54.126Z,13.80
2023-04-13T11:45:22.743Z,13.30
2023-04-13T11:47:50.502Z,12.70
2023-04-13T11:50:20.098Z,12.30
2023-04-13T11:52:48.929Z,12.00
2023-04-13T11:55:23.038Z,11.80
2023-04-13T11:57:51.319Z,11.80
2023-04-13T12:00:23.998Z,12.10
2023-04-13T12:05:30.113Z,13.60
2023-04-13T12:07:58.994Z,14.00
2023-04-13T12:10:38.180Z,14.20
2023-04-13T12:15:58.164Z,14.50
2023-04-13T12:18:37.262Z,14.70
2023-04-13T12:21:06.971Z,14.90
2023-04-13T12:23:34.096Z,14.80
2023-04-13T12:26:31.103Z,14.60
2023-04-13T12:28:55.412Z,14.20
2023-04-13T12:31:22.247Z,13.90
2023-04-13T12:33:49.106Z,13.70
2023-04-13T12:36:17.445Z,13.60
2023-04-13T12:38:44.191Z,13.60
2023-04-13T12:41:11.976Z,13.50
2023-04-13T12:43:38.880Z,13.50
2023-04-13T12:46:05.885Z,13.40
2023-04-13T12:48:32.727Z,13.50
2023-04-13T12:50:59.586Z,13.50
2023-04-13T12:53:27.807Z,13.60
2023-04-13T12:55:54.755Z,13.60
2023-04-13T12:58:21.619Z,13.60
2023-04-13T13:00:48.545Z,13.40
2023-04-13T13:03:15.689Z,13.10
2023-04-13T13:05:43.348Z,12.80
2023-04-13T13:08:10.160Z,12.30
2023-04-13T13:10:38.726Z,11.90
2023-04-13T13:13:06.335Z,11.60
2023-04-13T13:15:33.706Z,11.20
2023-04-13T13:18:06.486Z,11.00
2023-04-13T13:20:33.412Z,10.90
2023-04-13T13:23:00.415Z,10.80
2023-04-13T13:25:27.352Z,10.80
2023-04-13T13:30:27.693Z,11.00
2023-04-13T13:32:54.702Z,11.10
2023-04-13T13:35:21.788Z,11.20
2023-04-13T13:37:48.661Z,11.30
2023-04-13T13:40:15.620Z,11.40
2023-04-13T13:45:13.724Z,11.50
2023-04-13T13:47:40.670Z,11.50
2023-04-13T13:50:08.656Z,11.50
2023-04-13T13:52:35.685Z,11.50
2023-04-13T13:55:02.501Z,11.50
2023-04-13T13:57:29.345Z,11.60
2023-04-13T13:59:56.257Z,11.60
2023-04-13T14:02:24.603Z,11.60
2023-04-13T14:04:51.587Z,11.60
2023-04-13T14:07:18.509Z,11.50
2023-04-13T14:09:45.851Z,11.50
2023-04-13T14:12:12.700Z,11.40
2023-04-13T14:14:39.623Z,11.40
2023-04-13T14:17:06.806Z,11.50
2023-04-13T14:19:35.001Z,11.50
2023-04-13T14:22:01.871Z,11.60
2023-04-13T14:24:28.714Z,11.60
2023-04-13T14:26:55.576Z,11.70
2023-04-13T14:29:22.394Z,11.90
2023-04-13T14:31:49.283Z,12.20
2023-04-13T14:34:16.185Z,12.50
2023-04-13T14:36:44.792Z,12.70
2023-04-13T14:39:11.602Z,12.90
2023-04-13T14:41:38.420Z,13.00
2023-04-13T14:44:05.317Z,13.10
2023-04-13T14:46:32.132Z,13.20
2023-04-13T14:48:59.198Z,13.40
2023-04-13T14:51:28.851Z,13.50
2023-04-13T14:53:57.412Z,13.50
2023-04-13T14:56:24.467Z,13.50
2023-04-13T14:58:51.900Z,13.60
2023-04-13T15:01:19.911Z,13.70
2023-04-13T15:03:47.319Z,13.80
2023-04-13T15:06:14.882Z,13.90
2023-04-13T15:08:41.832Z,13.90
2023-04-13T15:11:10.208Z,13.90
2023-04-13T15:13:37.899Z,13.80
2023-04-13T15:16:06.584Z,13.80
2023-04-13T15:18:33.443Z,13.90
2023-04-13T15:21:02.315Z,13.90
2023-04-13T15:23:29.177Z,13.90
2023-04-13T15:25:55.926Z,13.90
2023-04-13T15:28:24.243Z,13.90
2023-04-13T15:30:52.879Z,13.80
2023-04-13T15:33:20.065Z,13.80
2023-04-13T15:35:47.051Z,13.80
2023-04-13T15:38:13.868Z,13.70
2023-04-13T15:40:42.065Z,13.60
2023-04-13T15:43:09.001Z,13.40
2023-04-13T15:45:37.175Z,13.20
2023-04-13T15:48:04.267Z,13.00
2023-04-13T15:50:31.195Z,12.70
2023-04-13T15:52:58.358Z,12.60
2023-04-13T15:55:25.227Z,12.50
2023-04-13T15:57:53.709Z,12.50
2023-04-13T16:00:20.973Z,12.40
2023-04-13T16:02:49.267Z,12.40
2023-04-13T16:05:16.522Z,12.40
2023-04-13T16:07:43.281Z,12.40
2023-04-13T16:10:15.431Z,12.30
2023-04-13T16:12:43.676Z,12.30
2023-04-13T16:15:11.994Z,12.10
2023-04-13T16:17:43.339Z,12.10
2023-04-13T16:20:14.869Z,12.00
2023-04-13T16:22:43.344Z,12.00
2023-04-13T16:25:11.281Z,12.00
2023-04-13T16:27:38.410Z,11.90
2023-04-13T16:30:08.165Z,11.90
2023-04-13T16:32:35.174Z,11.80
2023-04-13T16:35:02.278Z,11.80
2023-04-13T16:37:30.790Z,11.80
2023-04-13T16:39:57.636Z,11.80
2023-04-13T16:42:24.623Z,11.80
2023-04-13T16:44:51.428Z,11.70
2023-04-13T16:47:18.307Z,11.70
2023-04-13T16:49:45.109Z,11.70
2023-04-13T16:52:12.643Z,11.70
2023-04-13T16:54:44.046Z,11.60
2023-04-13T16:57:11.903Z,11.50
2023-04-13T16:59:39.006Z,11.40
2023-04-13T17:02:13.202Z,11.40
2023-04-13T17:04:45.052Z,11.40
2023-04-13T17:07:11.895Z,11.30
2023-04-13T17:09:38.739Z,11.30
2023-04-13T17:12:07.177Z,11.30
2023-04-13T17:14:34.119Z,11.30
2023-04-13T17:17:00.953Z,11.30
2023-04-13T17:19:27.903Z,11.30
2023-04-13T17:21:54.750Z,11.30
2023-04-13T17:24:22.083Z,11.30
2023-04-13T17:26:49.026Z,11.30
2023-04-13T17:29:19.737Z,11.30
2023-04-13T17:31:46.737Z,11.30
2023-04-13T17:34:13.739Z,11.30
2023-04-13T17:36:40.565Z,11.30
2023-04-13T17:39:08.242Z,11.30
2023-04-13T17:41:35.322Z,11.20
2023-04-13T17:44:02.306Z,11.20
2023-04-13T17:46:30.800Z,11.20
2023-04-13T17:48:57.997Z,11.10
2023-04-13T17:51:25.300Z,11.00
2023-04-13T17:53:52.218Z,11.00
2023-04-13T17:56:19.693Z,11.00
2023-04-13T17:58:46.598Z,10.90
2023-04-13T18:01:13.527Z,10.90
2023-04-13T18:03:41.887Z,10.90
2023-04-13T18:06:08.983Z,10.90
2023-04-13T18:08:35.860Z,10.80
2023-04-13T18:11:03.055Z,10.80
2023-04-13T18:13:31.405Z,10.80
2023-04-13T18:15:58.357Z,11.00
2023-04-13T18:18:25.555Z,10.90
2023-04-13T18:20:53.756Z,11.00
2023-04-13T18:23:24.144Z,11.00
2023-04-13T18:25:52.092Z,11.00
2023-04-13T18:28:18.917Z,11.10
2023-04-13T18:30:46.159Z,11.10
2023-04-13T18:33:13.413Z,11.10
2023-04-13T18:35:42.581Z,11.10
2023-04-13T18:38:11.101Z,11.20
2023-04-13T18:40:39.675Z,11.20
2023-04-13T18:43:06.530Z,11.20
2023-04-13T18:45:33.386Z,11.20
2023-04-13T18:48:00.407Z,11.20
2023-04-13T18:50:27.291Z,11.20
2023-04-13T18:52:54.181Z,11.20
2023-04-13T18:55:24.716Z,11.10
2023-04-13T18:57:51.774Z,11.10
2023-04-13T19:00:19.330Z,11.10
2023-04-13T19:02:48.432Z,11.10
2023-04-13T19:05:15.535Z,11.10
2023-04-13T19:07:44.759Z,11.10
2023-04-13T19:10:11.785Z,11.10
2023-04-13T19:12:40.036Z,11.10
2023-04-13T19:15:07.669Z,11.10
2023-04-13T19:17:34.652Z,11.10
2023-04-13T19:20:02.582Z,11.10
2023-04-13T19:22:29.412Z,11.00
2023-04-13T19:24:56.250Z,11.00
2023-04-13T19:27:23.662Z,11.00
2023-04-13T19:29:52.347Z,11.00
2023-04-13T19:32:19.314Z,11.00
2023-04-13T19:34:46.171Z,11.00
2023-04-13T19:37:12.980Z,11.00
2023-04-13T19:39:39.881Z,11.00
2023-04-13T19:42:06.797Z,10.90
2023-04-13T19:44:33.629Z,10.90
2023-04-13T19:47:03.278Z,10.90
2023-04-13T19:49:30.416Z,10.90
2023-04-13T19:51:57.191Z,10.80
2023-04-13T19:54:24.095Z,10.80
2023-04-13T19:56:50.889Z,10.80
2023-04-13T19:59:17.700Z,10.70
2023-04-13T20:01:45.777Z,10.70
2023-04-13T20:04:14.280Z,10.70
2023-04-13T20:06:41.246Z,10.70
2023-04-13T20:09:09.231Z,10.70
2023-04-13T20:11:36.081Z,10.80
2023-04-13T20:14:04.101Z,10.70
2023-04-13T20:16:31.076Z,10.70
2023-04-13T20:18:57.859Z,10.70
2023-04-13T20:21:30.796Z,10.70
2023-04-13T20:23:58.190Z,10.70
2023-04-13T20:26:27.898Z,10.70
2023-04-13T20:28:55.346Z,10.70
2023-04-13T20:31:22.357Z,10.70
2023-04-13T20:33:49.319Z,10.70
2023-04-13T20:36:16.735Z,10.70
2023-04-13T20:38:45.101Z,10.70
2023-04-13T20:41:13.819Z,10.70
2023-04-13T20:43:40.994Z,10.70
2023-04-13T20:46:08.539Z,10.70
2023-04-13T20:51:07.969Z,10.70
2023-04-13T20:53:37.263Z,10.70
2023-04-13T20:56:07.066Z,10.60
2023-04-13T20:58:33.992Z,10.60
2023-04-13T21:01:01.453Z,10.60
2023-04-13T21:03:31.950Z,10.60
2023-04-13T21:06:00.056Z,10.50
2023-04-13T21:08:27.383Z,10.50
2023-04-13T21:10:54.169Z,10.50
2023-04-13T21:13:22.960Z,10.40
2023-04-13T21:15:49.920Z,10.40
2023-04-13T21:18:16.782Z,10.30
2023-04-13T21:20:43.911Z,10.30
2023-04-13T21:23:10.807Z,10.20
2023-04-13T21:25:37.776Z,10.20
2023-04-13T21:28:04.911Z,10.10
2023-04-13T21:30:33.422Z,10.10
2023-04-13T21:33:00.347Z,10.10
2023-04-13T21:35:27.920Z,10.20
2023-04-13T21:37:54.740Z,10.20
2023-04-13T21:40:24.025Z,10.20
2023-04-13T21:42:51.063Z,10.20
2023-04-13T21:45:17.924Z,10.20
2023-04-13T21:47:47.083Z,10.20
2023-04-13T21:50:14.124Z,10.20
2023-04-13T21:52:41.113Z,10.20
2023-04-13T21:55:11.128Z,10.20
2023-04-13T21:57:38.075Z,10.20
2023-04-13T22:00:06.809Z,10.20
2023-04-13T22:02:33.873Z,10.10
2023-04-13T22:05:02.176Z,10.10
2023-04-13T22:07:41.212Z,10.10
2023-04-13T22:10:09.741Z,10.00
2023-04-13T22:12:36.627Z,10.00
2023-04-13T22:15:03.745Z,9.90
2023-04-13T22:17:30.668Z,9.90
2023-04-13T22:19:57.494Z,9.90
2023-04-13T22:22:25.637Z,9.90
2023-04-13T22:24:53.349Z,9.90
2023-04-13T22:27:20.571Z,9.90
2023-04-13T22:29:47.880Z,9.90
2023-04-13T22:32:15.088Z,9.90
2023-04-13T22:34:42.029Z,9.90
2023-04-13T22:37:10.351Z,9.90
2023-04-13T22:39:38.597Z,9.90
2023-04-13T22:42:05.822Z,9.80
2023-04-13T22:44:33.285Z,9.80
2023-04-13T22:47:00.521Z,9.70
2023-04-13T22:49:28.423Z,9.60
2023-04-13T22:51:55.993Z,9.50
2023-04-13T22:54:22.881Z,9.50
2023-04-13T22:56:51.399Z,9.40
2023-04-13T22:59:18.541Z,9.40
2023-04-13T23:01:45.575Z,9.30
2023-04-13T23:04:15.706Z,9.30
2023-04-13T23:06:42.900Z,9.30
2023-04-13T23:09:09.735Z,9.20
2023-04-13T23:11:36.585Z,9.20
2023-04-13T23:14:06.545Z,9.20
2023-04-13T23:16:33.526Z,9.10
2023-04-13T23:19:00.589Z,9.10
2023-04-13T23:21:28.873Z,9.00
2023-04-13T23:23:55.761Z,9.00
2023-04-13T23:26:22.697Z,8.90
2023-04-13T23:28:49.548Z,8.90
2023-04-13T23:31:17.802Z,8.90
2023-04-13T23:33:44.761Z,8.90
2023-04-13T23:36:11.724Z,8.90
2023-04-13T23:38:38.693Z,8.90
2023-04-13T23:41:05.802Z,8.80
2023-04-13T23:43:32.693Z,8.80
2023-04-13T23:45:59.611Z,8.80
2023-04-13T23:48:27.797Z,8.80
2023-04-13T23:50:54.847Z,8.80
2023-04-13T23:53:21.662Z,8.90
2023-04-13T23:55:48.555Z,8.90
2023-04-13T23:58:15.452Z,8.90
